Time;durP1;ratioP1;P1;durP2;ratioP2;P2;SDS_P1;SDS_P2;PMS_P1;PMS_P2;Temp;Humidity;BMP_temperature;BMP_pressure;BME280_temperature;BME280_humidity;BME280_pressure;Samples;Min_cycle;Max_cycle;Signal;HPM_P1;HPM_P2
2024/01/24 00:00:14;;;;;;;0.20;0.20;;;6.40;99.90;;;;;;5051203;28;20574;-86
2024/01/24 00:02:40;;;;;;;0.20;0.20;;;6.50;99.90;;;;;;5052523;28;20185;-85
2024/01/24 00:05:06;;;;;;;0.20;0.20;;;6.50;99.90;;;;;;5070445;28;20173;-86
2024/01/24 00:07:31;;;;;;;0.20;0.20;;;6.50;99.90;;;;;;5051681;28;20935;-85
2024/01/24 00:09:57;;;;;;;0.20;0.20;;;6.50;99.90;;;;;;5068113;28;20455;-86
2024/01/24 00:12:23;;;;;;;0.20;0.20;;;6.50;99.90;;;;;;5070185;28;20228;-86
2024/01/24 00:14:48;;;;;;;0.20;0.20;;;6.60;99.90;;;;;;5050678;28;20181;-85
2024/01/24 00:17:14;;;;;;;0.20;0.20;;;6.70;99.90;;;;;;5051268;28;20182;-85
2024/01/24 00:19:39;;;;;;;0.20;0.20;;;6.70;99.90;;;;;;5049484;28;20198;-85
2024/01/24 00:22:05;;;;;;;0.20;0.20;;;6.80;99.90;;;;;;5070228;28;20647;-86
2024/01/24 00:24:30;;;;;;;0.20;0.20;;;6.80;99.90;;;;;;5051845;28;20181;-85
2024/01/24 00:26:56;;;;;;;0.20;0.20;;;6.90;99.90;;;;;;5069872;28;20182;-86
2024/01/24 00:29:21;;;;;;;0.20;0.20;;;6.90;99.90;;;;;;5050430;28;20275;-85
2024/01/24 00:31:48;;;;;;;0.20;0.20;;;6.90;99.90;;;;;;5065810;28;20174;-84
2024/01/24 00:34:14;;;;;;;0.20;0.20;;;6.90;99.90;;;;;;5067288;28;20132;-85
2024/01/24 00:36:40;;;;;;;0.20;0.20;;;7.00;99.90;;;;;;5067632;28;20393;-86
2024/01/24 00:39:07;;;;;;;0.20;0.20;;;7.10;99.90;;;;;;5063968;28;20479;-85
2024/01/24 00:41:33;;;;;;;0.20;0.20;;;7.10;99.90;;;;;;5062911;28;20182;-85
2024/01/24 00:43:58;;;;;;;0.10;0.10;;;7.10;99.90;;;;;;5063760;28;20433;-83
2024/01/24 00:46:24;;;;;;;0.20;0.20;;;7.20;99.90;;;;;;5048091;28;20160;-85
2024/01/24 00:48:49;;;;;;;0.20;0.20;;;7.20;99.90;;;;;;5064488;28;20218;-85
2024/01/24 00:51:15;;;;;;;0.10;0.10;;;7.30;99.90;;;;;;5065368;28;20186;-86
2024/01/24 00:53:43;;;;;;;0.20;0.20;;;7.40;99.90;;;;;;5064744;28;20197;-86
2024/01/24 00:56:08;;;;;;;0.10;0.10;;;7.50;99.90;;;;;;5063534;28;20220;-87
2024/01/24 00:58:34;;;;;;;0.10;0.10;;;7.60;99.90;;;;;;5066395;28;20420;-86
2024/01/24 01:01:00;;;;;;;0.20;0.20;;;7.70;99.90;;;;;;5047515;28;20185;-86
2024/01/24 01:03:25;;;;;;;0.10;0.10;;;7.80;99.90;;;;;;5048819;28;20182;-85
2024/01/24 01:05:51;;;;;;;0.10;0.10;;;7.90;99.90;;;;;;5048212;28;20247;-87
2024/01/24 01:08:16;;;;;;;0.20;0.20;;;7.80;99.90;;;;;;5047059;28;20186;-87
2024/01/24 01:10:42;;;;;;;0.10;0.10;;;8.00;99.90;;;;;;5063173;28;20194;-85
2024/01/24 01:13:07;;;;;;;0.20;0.20;;;8.10;99.90;;;;;;5046527;28;20387;-86
2024/01/24 01:15:33;;;;;;;0.20;0.20;;;8.20;99.90;;;;;;5048274;28;20324;-86
2024/01/24 01:17:58;;;;;;;0.10;0.10;;;8.40;99.90;;;;;;5048775;28;20235;-86
2024/01/24 01:20:24;;;;;;;0.10;0.10;;;8.40;99.90;;;;;;5067468;28;20149;-87
2024/01/24 01:22:49;;;;;;;0.20;0.20;;;8.50;99.90;;;;;;5069874;28;20180;-87
2024/01/24 01:25:15;;;;;;;0.10;0.10;;;8.70;99.90;;;;;;5069079;28;20186;-88
2024/01/24 01:27:40;;;;;;;0.10;0.10;;;8.70;99.90;;;;;;5049596;28;20197;-86
2024/01/24 01:30:07;;;;;;;0.10;0.10;;;8.80;99.90;;;;;;5069647;28;20303;-86
2024/01/24 01:32:32;;;;;;;0.10;0.10;;;8.80;99.90;;;;;;5067969;28;21264;-86
2024/01/24 01:34:59;;;;;;;0.10;0.10;;;8.90;99.90;;;;;;5068115;28;20876;-87
2024/01/24 01:37:25;;;;;;;0.20;0.20;;;9.00;99.90;;;;;;5064566;28;20285;-85
2024/01/24 01:39:50;;;;;;;0.10;0.10;;;9.00;99.90;;;;;;5067496;28;20460;-86
2024/01/24 01:42:16;;;;;;;0.20;0.20;;;9.00;99.90;;;;;;5068252;28;20168;-88
2024/01/24 01:44:46;;;;;;;0.20;0.20;;;9.20;99.90;;;;;;5048818;28;20200;-86
2024/01/24 01:47:13;;;;;;;0.10;0.10;;;9.30;99.90;;;;;;5068902;28;20182;-85
2024/01/24 01:49:40;;;;;;;0.10;0.10;;;9.30;99.90;;;;;;5067475;28;20487;-83
2024/01/24 01:52:06;;;;;;;0.20;0.20;;;9.20;99.90;;;;;;5066428;28;20435;-85
2024/01/24 01:54:33;;;;;;;0.10;0.10;;;9.30;99.90;;;;;;5067819;28;20451;-87
2024/01/24 01:56:58;;;;;;;0.10;0.10;;;9.40;99.90;;;;;;5050305;28;20800;-85
2024/01/24 01:59:25;;;;;;;0.20;0.20;;;9.30;99.90;;;;;;5065930;28;20428;-85
2024/01/24 02:01:54;;;;;;;0.10;0.10;;;9.40;99.90;;;;;;5064979;28;20674;-84
2024/01/24 02:04:20;;;;;;;0.10;0.10;;;9.40;99.90;;;;;;5050030;28;20453;-85
2024/01/24 02:06:46;;;;;;;0.10;0.10;;;9.50;99.90;;;;;;5050329;28;21059;-84
2024/01/24 02:09:12;;;;;;;0.10;0.10;;;9.40;99.90;;;;;;5066873;28;20467;-82
2024/01/24 02:11:39;;;;;;;0.10;0.10;;;9.50;99.90;;;;;;5067625;28;20225;-85
2024/01/24 02:14:06;;;;;;;0.10;0.10;;;9.50;99.90;;;;;;5067556;28;20576;-85
2024/01/24 02:16:31;;;;;;;0.10;0.10;;;9.50;99.90;;;;;;5065607;28;21405;-85
2024/01/24 02:18:57;;;;;;;0.10;0.10;;;9.50;99.90;;;;;;5067817;28;20443;-86
2024/01/24 02:21:22;;;;;;;0.10;0.10;;;9.50;99.90;;;;;;5049517;28;20716;-86
2024/01/24 02:23:48;;;;;;;0.10;0.10;;;9.60;99.90;;;;;;5050467;28;20655;-85
2024/01/24 02:26:15;;;;;;;0.10;0.10;;;9.70;99.90;;;;;;5049763;28;20636;-86
2024/01/24 02:28:40;;;;;;;0.10;0.10;;;9.60;99.90;;;;;;5066875;28;20236;-86
2024/01/24 02:31:06;;;;;;;0.10;0.10;;;9.70;99.90;;;;;;5049719;28;20469;-86
2024/01/24 02:33:31;;;;;;;0.20;0.20;;;9.70;99.90;;;;;;5063995;28;20196;-85
2024/01/24 02:35:57;;;;;;;0.10;0.10;;;9.70;99.90;;;;;;5066837;28;20186;-85
2024/01/24 02:38:23;;;;;;;0.10;0.10;;;9.80;99.90;;;;;;5067959;28;20205;-86
2024/01/24 02:40:49;;;;;;;0.10;0.10;;;9.90;99.90;;;;;;5066472;28;20176;-86
2024/01/24 02:43:14;;;;;;;0.10;0.10;;;10.00;99.90;;;;;;5066716;28;20530;-85
2024/01/24 02:45:40;;;;;;;0.10;0.10;;;9.90;99.90;;;;;;5050608;28;20181;-84
2024/01/24 02:48:05;;;;;;;0.10;0.10;;;9.90;99.90;;;;;;5050399;28;20197;-83
2024/01/24 02:50:31;;;;;;;0.10;0.10;;;10.00;99.90;;;;;;5065734;28;21077;-84
2024/01/24 02:52:56;;;;;;;0.10;0.10;;;9.90;99.90;;;;;;5067882;28;20193;-85
2024/01/24 02:55:22;;;;;;;0.10;0.10;;;10.00;99.90;;;;;;5049018;28;20240;-84
2024/01/24 02:57:48;;;;;;;0.10;0.10;;;10.00;99.90;;;;;;5067502;28;20186;-83
2024/01/24 03:00:14;;;;;;;0.10;0.10;;;10.10;99.90;;;;;;5067973;28;20186;-84
2024/01/24 03:02:40;;;;;;;0.10;0.10;;;10.10;99.90;;;;;;5064812;28;20805;-84
2024/01/24 03:05:08;;;;;;;0.10;0.10;;;10.10;99.90;;;;;;5048307;28;20426;-86
2024/01/24 03:07:36;;;;;;;0.10;0.10;;;10.10;99.90;;;;;;5047907;28;20182;-85
2024/01/24 03:10:02;;;;;;;0.10;0.10;;;10.00;99.90;;;;;;5065560;28;20472;-87
2024/01/24 03:12:28;;;;;;;0.10;0.10;;;10.00;99.90;;;;;;5065851;28;20463;-85
2024/01/24 03:14:53;;;;;;;0.10;0.10;;;10.00;99.90;;;;;;5064393;28;20428;-87
2024/01/24 03:17:19;;;;;;;0.10;0.10;;;10.00;99.90;;;;;;5067588;28;20199;-86
2024/01/24 03:19:44;;;;;;;0.10;0.10;;;9.90;99.90;;;;;;5065770;28;20210;-88
2024/01/24 03:22:10;;;;;;;0.10;0.10;;;9.90;99.90;;;;;;5048269;28;20641;-86
2024/01/24 03:24:35;;;;;;;0.10;0.10;;;9.90;99.90;;;;;;5065806;28;20190;-86
2024/01/24 03:27:01;;;;;;;0.20;0.20;;;9.90;99.90;;;;;;5067461;28;20175;-87
2024/01/24 03:29:26;;;;;;;0.10;0.10;;;9.90;99.90;;;;;;5068753;28;20225;-87
2024/01/24 03:31:52;;;;;;;0.10;0.10;;;9.90;99.90;;;;;;5050505;28;21516;-87
2024/01/24 03:34:17;;;;;;;0.20;0.20;;;9.80;99.90;;;;;;5067121;28;20185;-87
2024/01/24 03:36:43;;;;;;;0.10;0.10;;;9.80;99.90;;;;;;5064639;28;20700;-88
2024/01/24 03:39:11;;;;;;;0.20;0.20;;;9.70;99.90;;;;;;5067283;28;20184;-86
2024/01/24 03:41:38;;;;;;;0.10;0.10;;;9.80;99.90;;;;;;5049410;28;20198;-88
2024/01/24 03:44:04;;;;;;;0.10;0.10;;;9.80;99.90;;;;;;5066995;28;20551;-87
2024/01/24 03:46:29;;;;;;;0.20;0.20;;;9.80;99.90;;;;;;5068065;28;20465;-87
2024/01/24 03:48:55;;;;;;;0.20;0.20;;;9.70;99.90;;;;;;5066220;28;20967;-86
2024/01/24 03:51:20;;;;;;;0.10;0.10;;;9.60;99.90;;;;;;5067098;28;20213;-86
2024/01/24 03:53:46;;;;;;;0.17;0.17;;;9.60;99.90;;;;;;5067199;28;20583;-90
2024/01/24 03:56:12;;;;;;;0.20;0.20;;;9.70;99.90;;;;;;5067920;28;20213;-87
2024/01/24 03:58:37;;;;;;;0.20;0.20;;;9.70;99.90;;;;;;5068898;28;20705;-87
2024/01/24 04:01:04;;;;;;;0.20;0.20;;;9.80;99.90;;;;;;5047514;28;20243;-90
2024/01/24 04:03:29;;;;;;;0.20;0.20;;;9.80;99.90;;;;;;5066993;28;20182;-89
2024/01/24 04:05:55;;;;;;;0.20;0.20;;;9.70;99.90;;;;;;5068790;28;20446;-88
2024/01/24 04:08:21;;;;;;;0.23;0.23;;;9.70;99.90;;;;;;5066791;28;21170;-87
2024/01/24 04:10:47;;;;;;;0.20;0.20;;;9.70;99.90;;;;;;5068684;28;21023;-86
2024/01/24 04:13:12;;;;;;;0.20;0.20;;;9.70;99.90;;;;;;5066149;28;20235;-90
2024/01/24 04:15:38;;;;;;;0.20;0.20;;;9.70;99.90;;;;;;5047495;28;20202;-89
2024/01/24 04:18:04;;;;;;;0.20;0.20;;;9.60;99.90;;;;;;5048325;28;20184;-91
2024/01/24 04:20:29;;;;;;;0.20;0.20;;;9.70;99.90;;;;;;5067324;28;20185;-87
2024/01/24 04:22:55;;;;;;;0.20;0.20;;;9.60;99.90;;;;;;5052246;28;20710;-86
2024/01/24 04:25:20;;;;;;;0.20;0.20;;;9.50;99.90;;;;;;5069237;28;20186;-87
2024/01/24 04:27:46;;;;;;;0.10;0.10;;;9.60;99.90;;;;;;5068282;28;20231;-86
2024/01/24 04:30:12;;;;;;;0.20;0.20;;;9.60;99.90;;;;;;5068563;28;20226;-90
2024/01/24 04:32:37;;;;;;;0.20;0.20;;;9.70;99.90;;;;;;5067520;28;20190;-88
2024/01/24 04:35:03;;;;;;;0.20;0.20;;;9.70;99.90;;;;;;5066910;28;20433;-89
2024/01/24 04:37:29;;;;;;;0.20;0.20;;;9.70;99.90;;;;;;5048860;28;20700;-88
2024/01/24 04:39:54;;;;;;;0.20;0.20;;;9.60;99.90;;;;;;5068107;28;20186;-85
2024/01/24 04:42:20;;;;;;;0.17;0.17;;;9.60;99.90;;;;;;5048872;28;20177;-89
2024/01/24 04:44:46;;;;;;;0.20;0.20;;;9.70;99.90;;;;;;5064813;28;20174;-89
2024/01/24 04:47:13;;;;;;;0.27;0.27;;;9.70;99.90;;;;;;5066698;28;21641;-87
2024/01/24 04:49:39;;;;;;;0.20;0.20;;;9.60;99.90;;;;;;5067455;28;20468;-89
2024/01/24 04:52:05;;;;;;;0.30;0.30;;;9.70;99.90;;;;;;5067026;28;20409;-88
2024/01/24 04:54:36;;;;;;;0.30;0.30;;;9.70;99.90;;;;;;5067869;28;20515;-89
2024/01/24 04:57:02;;;;;;;0.20;0.20;;;9.80;99.90;;;;;;5070905;28;20204;-87
2024/01/24 04:59:30;;;;;;;0.20;0.20;;;9.80;99.90;;;;;;5072074;28;20511;-88
2024/01/24 05:01:56;;;;;;;0.20;0.20;;;9.80;99.90;;;;;;5052611;28;20828;-88
2024/01/24 05:04:21;;;;;;;0.20;0.20;;;9.80;99.90;;;;;;5070689;28;20431;-85
2024/01/24 05:06:47;;;;;;;0.10;0.10;;;9.70;99.90;;;;;;5070879;28;20657;-88
2024/01/24 05:09:14;;;;;;;0.43;0.43;;;9.70;99.90;;;;;;5054432;28;20206;-89
2024/01/24 05:11:40;;;;;;;0.20;0.20;;;9.80;99.90;;;;;;5072065;28;20226;-88
2024/01/24 05:14:06;;;;;;;0.20;0.20;;;9.80;99.90;;;;;;5071226;28;20466;-86
2024/01/24 05:16:32;;;;;;;0.30;0.30;;;9.70;99.90;;;;;;5066400;28;20907;-86
2024/01/24 05:18:58;;;;;;;0.27;0.27;;;9.60;99.90;;;;;;5070872;28;20416;-89
2024/01/24 05:21:23;;;;;;;0.30;0.30;;;9.70;99.90;;;;;;5049401;28;20228;-86
2024/01/24 05:23:51;;;;;;;0.23;0.23;;;9.60;99.90;;;;;;5068227;28;20178;-89
2024/01/24 05:26:17;;;;;;;0.20;0.20;;;9.50;99.90;;;;;;5070343;28;20210;-89
2024/01/24 05:28:42;;;;;;;0.20;0.20;;;9.50;99.90;;;;;;5070046;28;20502;-89
2024/01/24 05:31:08;;;;;;;0.20;0.20;;;9.60;99.90;;;;;;5053286;28;20228;-89
2024/01/24 05:33:33;;;;;;;0.47;0.47;;;9.60;99.90;;;;;;5069384;28;20185;-91
2024/01/24 05:35:59;;;;;;;0.20;0.20;;;9.60;99.90;;;;;;5072726;28;20182;-91
2024/01/24 05:38:24;;;;;;;0.30;0.30;;;9.70;99.90;;;;;;5068836;28;20231;-90
2024/01/24 05:40:50;;;;;;;0.20;0.20;;;9.70;99.90;;;;;;5054732;28;20181;-89
2024/01/24 05:43:15;;;;;;;0.30;0.30;;;9.60;99.90;;;;;;5053635;28;20254;-89
2024/01/24 05:45:41;;;;;;;0.30;0.30;;;9.60;99.90;;;;;;5062808;28;20265;-88
2024/01/24 05:48:07;;;;;;;0.30;0.30;;;9.60;99.90;;;;;;5073602;28;20214;-89
2024/01/24 05:50:33;;;;;;;0.20;0.20;;;9.70;99.90;;;;;;5073216;28;20686;-89
2024/01/24 05:52:59;;;;;;;0.30;0.30;;;9.50;99.90;;;;;;5054968;28;20452;-89
2024/01/24 05:55:24;;;;;;;0.20;0.20;;;9.50;99.90;;;;;;5071841;28;20182;-91
2024/01/24 05:57:50;;;;;;;0.20;0.20;;;9.60;99.90;;;;;;5073171;28;20182;-89
2024/01/24 06:00:16;;;;;;;0.20;0.20;;;9.60;99.90;;;;;;5072500;28;20209;-89
2024/01/24 06:02:43;;;;;;;0.10;0.10;;;9.50;99.90;;;;;;5064284;28;20653;-91
2024/01/24 06:05:09;;;;;;;0.20;0.20;;;9.50;99.90;;;;;;5072820;28;20212;-89
2024/01/24 06:07:34;;;;;;;0.20;0.20;;;9.50;99.90;;;;;;5073611;28;20455;-90
2024/01/24 06:10:00;;;;;;;0.20;0.20;;;9.50;99.90;;;;;;5054550;28;20496;-89
2024/01/24 06:12:26;;;;;;;0.20;0.20;;;9.50;99.90;;;;;;5073338;28;20218;-90
2024/01/24 06:14:54;;;;;;;0.20;0.20;;;9.40;99.90;;;;;;5070965;28;20188;-91
2024/01/24 06:17:19;;;;;;;0.20;0.20;;;9.40;99.90;;;;;;5073605;28;20416;-88
2024/01/24 06:19:45;;;;;;;0.23;0.23;;;9.40;99.90;;;;;;5053342;28;20447;-90
2024/01/24 06:22:11;;;;;;;0.20;0.20;;;9.30;99.90;;;;;;5073431;28;20200;-90
2024/01/24 06:24:37;;;;;;;0.20;0.20;;;9.40;99.90;;;;;;5054196;28;20229;-89
2024/01/24 06:27:03;;;;;;;0.20;0.20;;;9.40;99.90;;;;;;5062587;28;20651;-89
2024/01/24 06:29:29;;;;;;;0.20;0.20;;;9.50;99.90;;;;;;5046432;28;20521;-90
2024/01/24 06:31:55;;;;;;;0.20;0.20;;;9.40;99.90;;;;;;5067487;28;20445;-90
2024/01/24 06:34:21;;;;;;;0.20;0.20;;;9.30;99.90;;;;;;5072293;28;20451;-90
2024/01/24 06:36:47;;;;;;;0.20;0.20;;;9.40;99.90;;;;;;5073505;28;20417;-90
2024/01/24 06:39:13;;;;;;;0.20;0.20;;;9.30;99.90;;;;;;5069631;28;20817;-89
2024/01/24 06:41:38;;;;;;;0.20;0.20;;;9.30;99.90;;;;;;5073213;28;20171;-93
2024/01/24 06:44:05;;;;;;;0.30;0.30;;;9.30;99.90;;;;;;5054658;28;20182;-90
2024/01/24 06:46:31;;;;;;;0.20;0.20;;;9.30;99.90;;;;;;5070519;28;20268;-89
2024/01/24 06:48:57;;;;;;;0.20;0.20;;;9.40;99.90;;;;;;5072152;28;20521;-90
2024/01/24 06:51:22;;;;;;;0.20;0.20;;;9.30;99.90;;;;;;5051757;28;20901;-88
2024/01/24 06:53:48;;;;;;;0.20;0.20;;;9.30;99.90;;;;;;5072525;28;20181;-90
2024/01/24 06:56:13;;;;;;;0.20;0.20;;;9.30;99.90;;;;;;5073036;28;20239;-92
2024/01/24 06:58:40;;;;;;;0.20;0.20;;;9.30;99.90;;;;;;5072866;28;20651;-91
2024/01/24 07:01:06;;;;;;;0.20;0.20;;;9.30;99.90;;;;;;5055613;28;20247;-93
2024/01/24 07:03:32;;;;;;;0.20;0.20;;;9.30;99.90;;;;;;5067669;28;20468;-92
2024/01/24 07:05:58;;;;;;;0.30;0.30;;;9.40;99.90;;;;;;5053391;28;20463;-90
2024/01/24 07:08:24;;;;;;;0.30;0.30;;;9.30;99.90;;;;;;5073349;28;20431;-92
2024/01/24 07:10:50;;;;;;;0.30;0.30;;;9.20;99.90;;;;;;5072017;28;20822;-92
2024/01/24 07:13:15;;;;;;;0.20;0.20;;;9.20;99.90;;;;;;5073238;28;20178;-91
2024/01/24 07:15:42;;;;;;;0.30;0.30;;;9.20;99.90;;;;;;5065937;28;20576;-92
2024/01/24 07:18:08;;;;;;;0.20;0.20;;;9.20;99.90;;;;;;5062192;28;20654;-90
2024/01/24 07:20:33;;;;;;;0.30;0.30;;;9.20;99.90;;;;;;5052727;28;20429;-90
2024/01/24 07:22:59;;;;;;;0.30;0.30;;;9.20;99.90;;;;;;5071678;28;20193;-91
2024/01/24 07:25:24;;;;;;;0.20;0.20;;;9.20;99.90;;;;;;5072547;28;20168;-92
2024/01/24 07:27:50;;;;;;;0.20;0.20;;;9.10;99.90;;;;;;5067604;28;20213;-92
2024/01/24 07:30:16;;;;;;;0.20;0.20;;;9.10;99.90;;;;;;5072862;28;20213;-90
2024/01/24 07:32:42;;;;;;;0.20;0.20;;;9.20;99.90;;;;;;5073350;28;20661;-91
2024/01/24 07:35:11;;;;;;;0.20;0.20;;;9.20;99.90;;;;;;5054772;28;20416;-91
2024/01/24 07:37:37;;;;;;;0.20;0.20;;;9.20;99.90;;;;;;5054463;28;20182;-92
2024/01/24 07:40:02;;;;;;;0.20;0.20;;;9.20;99.90;;;;;;5069189;28;20902;-88
2024/01/24 07:42:29;;;;;;;0.20;0.20;;;9.10;99.90;;;;;;5066854;28;20265;-89
2024/01/24 07:44:55;;;;;;;0.20;0.20;;;9.10;99.90;;;;;;5067412;28;20182;-90
2024/01/24 07:47:21;;;;;;;0.20;0.20;;;9.10;99.90;;;;;;5071081;28;20424;-89
2024/01/24 07:49:46;;;;;;;0.20;0.20;;;9.10;99.90;;;;;;5069445;28;20704;-89
2024/01/24 07:52:12;;;;;;;0.20;0.20;;;9.10;99.90;;;;;;5071336;28;20447;-90
2024/01/24 07:54:37;;;;;;;0.30;0.30;;;9.10;99.90;;;;;;5070240;28;20160;-89
2024/01/24 07:57:03;;;;;;;0.20;0.20;;;9.10;99.90;;;;;;5052326;28;20177;-88
2024/01/24 07:59:29;;;;;;;0.20;0.20;;;9.10;99.90;;;;;;5052551;28;20230;-91
2024/01/24 08:01:55;;;;;;;0.20;0.20;;;9.00;99.90;;;;;;5061743;28;20434;-89
2024/01/24 08:04:21;;;;;;;0.20;0.20;;;9.00;99.90;;;;;;5062888;28;20433;-89
2024/01/24 08:06:47;;;;;;;0.20;0.20;;;9.00;99.90;;;;;;5048962;28;20190;-92
2024/01/24 08:09:14;;;;;;;0.20;0.20;;;9.00;99.90;;;;;;5071000;28;20309;-90
2024/01/24 08:11:40;;;;;;;0.20;0.20;;;9.00;99.90;;;;;;5069750;28;20458;-88
2024/01/24 08:14:05;;;;;;;0.30;0.30;;;9.00;99.90;;;;;;5070613;28;20505;-89
2024/01/24 08:16:31;;;;;;;0.30;0.30;;;9.00;99.90;;;;;;5067000;28;20515;-89
2024/01/24 08:19:00;;;;;;;0.20;0.20;;;9.00;99.90;;;;;;5063227;28;20193;-89
2024/01/24 08:21:30;;;;;;;0.30;0.30;;;9.00;99.90;;;;;;5050526;28;21044;-88
2024/01/24 08:23:55;;;;;;;0.20;0.20;;;9.00;99.90;;;;;;5048641;28;20425;-87
2024/01/24 08:26:21;;;;;;;0.20;0.20;;;9.00;99.90;;;;;;5070381;28;20413;-89
2024/01/24 08:28:47;;;;;;;0.20;0.20;;;8.90;99.90;;;;;;5069384;28;20292;-85
2024/01/24 08:31:13;;;;;;;0.20;0.20;;;8.90;99.90;;;;;;5066126;28;20655;-86
2024/01/24 08:33:39;;;;;;;0.20;0.20;;;9.00;99.90;;;;;;5062465;28;20423;-88
2024/01/24 08:36:05;;;;;;;0.20;0.20;;;8.90;99.90;;;;;;5055575;28;20432;-87
2024/01/24 08:38:30;;;;;;;0.20;0.20;;;8.90;99.90;;;;;;5071402;28;20180;-89
2024/01/24 08:40:56;;;;;;;0.20;0.20;;;8.90;99.90;;;;;;5071009;28;20185;-87
2024/01/24 08:43:22;;;;;;;0.20;0.20;;;8.90;99.90;;;;;;5074030;28;20042;-87
2024/01/24 08:45:48;;;;;;;0.20;0.20;;;8.90;99.90;;;;;;5066449;28;20593;-88
2024/01/24 08:48:14;;;;;;;0.30;0.30;;;8.90;99.90;;;;;;5070104;28;20164;-89
2024/01/24 08:50:40;;;;;;;0.20;0.20;;;8.90;99.90;;;;;;5073056;28;20458;-87
2024/01/24 08:53:05;;;;;;;0.20;0.20;;;8.90;99.90;;;;;;5068264;28;20171;-89
2024/01/24 08:55:31;;;;;;;0.20;0.20;;;8.90;99.90;;;;;;5076025;28;20192;-95
2024/01/24 08:57:57;;;;;;;0.20;0.20;;;8.90;99.90;;;;;;5060126;28;20717;-86
2024/01/24 09:00:22;;;;;;;0.20;0.20;;;8.90;99.90;;;;;;5044329;28;20186;-88
2024/01/24 09:02:48;;;;;;;0.20;0.20;;;8.90;99.90;;;;;;5063061;28;20834;-89
2024/01/24 09:05:15;;;;;;;0.20;0.20;;;8.90;99.90;;;;;;5065744;28;20646;-84
2024/01/24 09:07:41;;;;;;;0.20;0.20;;;8.90;99.90;;;;;;5062089;28;20174;-86
2024/01/24 09:10:08;;;;;;;0.20;0.20;;;8.90;99.90;;;;;;5060640;28;20479;-86
2024/01/24 09:12:34;;;;;;;0.20;0.20;;;8.90;99.90;;;;;;5064309;28;20467;-86
2024/01/24 09:14:59;;;;;;;0.20;0.20;;;8.80;99.90;;;;;;5044555;28;20444;-91
2024/01/24 09:17:25;;;;;;;0.20;0.20;;;8.80;99.90;;;;;;5061309;28;20308;-88
2024/01/24 09:19:51;;;;;;;0.20;0.20;;;8.80;99.90;;;;;;5044446;28;20206;-86
2024/01/24 09:22:17;;;;;;;0.20;0.20;;;8.80;99.90;;;;;;5072313;28;20497;-86
2024/01/24 09:24:42;;;;;;;0.20;0.20;;;8.80;99.90;;;;;;5067707;28;20193;-88
2024/01/24 09:27:08;;;;;;;0.20;0.20;;;8.80;99.90;;;;;;5059201;28;20190;-92
2024/01/24 09:29:33;;;;;;;0.20;0.20;;;8.80;99.90;;;;;;5075675;28;20246;-94
2024/01/24 09:31:59;;;;;;;0.20;0.20;;;8.80;99.90;;;;;;5070016;28;20190;-91
2024/01/24 09:34:26;;;;;;;0.30;0.30;;;8.70;99.90;;;;;;5069999;28;20190;-92
2024/01/24 09:36:53;;;;;;;0.20;0.20;;;8.60;99.90;;;;;;5075477;28;20182;-92
2024/01/24 09:39:19;;;;;;;0.20;0.20;;;8.60;99.90;;;;;;5072069;28;20440;-93
2024/01/24 09:41:45;;;;;;;0.20;0.20;;;8.60;99.90;;;;;;5071964;28;20935;-91
2024/01/24 09:44:14;;;;;;;0.20;0.20;;;8.70;99.90;;;;;;5076254;28;20182;-93
2024/01/24 09:46:40;;;;;;;0.20;0.20;;;8.60;99.90;;;;;;5076206;28;20913;-91
2024/01/24 09:49:07;;;;;;;0.20;0.20;;;8.70;99.90;;;;;;5075106;28;20442;-94
2024/01/24 09:51:34;;;;;;;0.30;0.30;;;8.70;99.90;;;;;;5073853;28;20546;-91
2024/01/24 09:54:08;;;;;;;0.20;0.20;;;8.70;99.90;;;;;;5047530;28;20426;-92
2024/01/24 09:56:36;;;;;;;0.20;0.20;;;8.60;99.90;;;;;;5062243;28;20402;-92
2024/01/24 09:59:04;;;;;;;0.20;0.20;;;8.60;99.90;;;;;;5052568;28;20433;-91
2024/01/24 10:01:33;;;;;;;0.20;0.20;;;8.60;99.90;;;;;;5056645;28;20577;-92
2024/01/24 10:04:00;;;;;;;0.20;0.20;;;8.60;99.90;;;;;;5072927;28;20426;-91
2024/01/24 10:06:27;;;;;;;0.20;0.20;;;8.60;99.90;;;;;;5075175;28;20420;-91
2024/01/24 10:08:54;;;;;;;0.20;0.20;;;8.50;99.90;;;;;;5059421;28;20457;-92
2024/01/24 10:11:19;;;;;;;0.30;0.30;;;8.40;99.90;;;;;;5075590;28;20464;-92
2024/01/24 10:13:45;;;;;;;0.20;0.20;;;8.40;99.90;;;;;;5074416;28;20509;-91
2024/01/24 10:16:10;;;;;;;;;;;8.50;99.90;;;;;;5044879;28;20594;-92
2024/01/24 10:18:36;;;;;;;0.20;0.20;;;8.40;99.90;;;;;;5072966;28;20051;-92
2024/01/24 10:21:04;;;;;;;0.20;0.20;;;8.40;99.90;;;;;;5065165;28;20623;-93
2024/01/24 10:23:30;;;;;;;0.20;0.20;;;8.50;99.90;;;;;;5074370;28;20205;-92
2024/01/24 10:25:59;;;;;;;0.20;0.20;;;8.60;99.90;;;;;;5057606;28;20427;-92
2024/01/24 10:28:25;;;;;;;0.30;0.30;;;8.50;99.90;;;;;;5077921;28;20412;-93
2024/01/24 10:30:51;;;;;;;;;;;8.40;99.90;;;;;;5073020;28;20383;-93
2024/01/24 10:33:17;;;;;;;;;;;8.40;99.90;;;;;;5059266;28;20009;-92
2024/01/24 10:35:43;;;;;;;;;;;8.30;99.90;;;;;;5056712;28;20066;-94
2024/01/24 10:38:12;;;;;;;;;;;8.20;99.90;;;;;;5075351;28;20568;-91
2024/01/24 10:40:40;;;;;;;;;;;8.10;99.90;;;;;;5074832;28;19915;-92
2024/01/24 10:43:11;;;;;;;;;;;8.00;99.90;;;;;;5074776;28;19915;-91
2024/01/24 10:45:41;;;;;;;;;;;7.90;99.90;;;;;;5074323;28;19912;-92
2024/01/24 10:48:08;;;;;;;;;;;7.80;99.90;;;;;;5065824;28;19980;-91
2024/01/24 10:50:34;;;;;;;;;;;7.70;99.90;;;;;;5074214;28;20384;-93
2024/01/24 10:53:01;;;;;;;;;;;7.70;99.90;;;;;;5073090;28;20402;-92
2024/01/24 10:55:27;;;;;;;;;;;7.60;99.90;;;;;;5073710;28;19912;-91
2024/01/24 10:57:53;;;;;;;;;;;7.60;99.90;;;;;;5056453;28;19912;-92
2024/01/24 11:00:22;;;;;;;;;;;7.60;99.90;;;;;;5073670;28;19916;-90
2024/01/24 11:02:48;;;;;;;;;;;7.60;99.90;;;;;;5073279;28;19915;-90
2024/01/24 11:05:23;;;;;;;;;;;7.60;99.90;;;;;;5072653;28;19908;-91
2024/01/24 11:08:02;;;;;;;;;;;7.60;99.90;;;;;;5073740;28;19916;-89
2024/01/24 11:10:33;;;;;;;;;;;7.60;99.90;;;;;;5063802;28;19992;-90
2024/01/24 11:12:59;;;;;;;;;;;7.50;99.90;;;;;;5071569;28;20444;-91
2024/01/24 11:15:28;;;;;;;;;;;7.60;99.90;;;;;;5046205;28;19916;-91
2024/01/24 11:18:12;;;;;;;;;;;7.50;99.90;;;;;;5060664;28;19917;-94
2024/01/24 11:20:54;;;;;;;;;;;7.50;99.90;;;;;;5074341;28;19923;-95
2024/01/24 11:23:40;;;;;;;;;;;7.50;99.90;;;;;;5078336;28;19904;-95
2024/01/24 11:26:09;;;;;;;;;;;7.50;99.90;;;;;;5078323;28;19931;-95
2024/01/24 11:28:35;;;;;;;;;;;7.50;99.90;;;;;;5074501;28;19908;-95
2024/01/24 11:31:01;;;;;;;;;;;7.40;99.90;;;;;;5074897;28;19916;-93
2024/01/24 11:33:26;;;;;;;;;;;7.30;99.90;;;;;;5073580;28;19908;-95
2024/01/24 11:35:53;;;;;;;;;;;7.30;99.90;;;;;;5073429;28;19904;-94
2024/01/24 11:38:22;;;;;;;;;;;7.30;99.90;;;;;;5058796;28;19908;-93
2024/01/24 11:40:51;;;;;;;;;;;7.30;99.90;;;;;;5057761;28;19919;-93
2024/01/24 11:43:27;;;;;;;;;;;7.30;99.90;;;;;;5068671;28;19913;-95
2024/01/24 11:45:53;;;;;;;;;;;7.30;99.90;;;;;;5059732;28;20349;-96
2024/01/24 11:48:19;;;;;;;;;;;7.20;99.90;;;;;;5080778;28;19951;-95
2024/01/24 11:50:46;;;;;;;;;;;7.20;99.90;;;;;;5076811;28;19966;-93
2024/01/24 11:53:11;;;;;;;;;;;7.20;99.90;;;;;;5075665;28;19912;-94
2024/01/24 11:55:37;;;;;;;;;;;7.20;99.90;;;;;;5073957;28;19916;-93
2024/01/24 11:58:03;;;;;;;;;;;7.20;99.90;;;;;;5070740;28;19908;-96
2024/01/24 12:00:28;;;;;;;;;;;7.20;99.90;;;;;;5076538;28;20027;-95
2024/01/24 12:02:54;;;;;;;;;;;7.20;99.90;;;;;;5059629;28;19915;-94
2024/01/24 12:05:20;;;;;;;;;;;7.20;99.90;;;;;;5056103;28;19911;-96
2024/01/24 12:07:45;;;;;;;;;;;7.30;99.90;;;;;;5075142;28;19916;-93
2024/01/24 12:10:11;;;;;;;;;;;7.30;99.90;;;;;;5072140;28;19912;-95
2024/01/24 12:12:37;;;;;;;;;;;7.30;99.90;;;;;;5074483;28;20351;-94
2024/01/24 12:15:03;;;;;;;;;;;7.30;99.90;;;;;;5067431;28;19909;-94
2024/01/24 12:17:28;;;;;;;;;;;7.40;99.90;;;;;;5074547;28;20451;-93
2024/01/24 12:19:54;;;;;;;;;;;7.30;99.90;;;;;;5056814;28;20344;-93
2024/01/24 12:22:19;;;;;;;;;;;7.40;99.90;;;;;;5074115;28;19912;-94
2024/01/24 12:24:45;;;;;;;;;;;7.50;99.90;;;;;;5074401;28;20399;-93
2024/01/24 12:27:11;;;;;;;;;;;7.50;99.90;;;;;;5074812;28;19999;-94
2024/01/24 12:29:39;;;;;;;;;;;7.50;99.90;;;;;;5075141;28;19970;-92
2024/01/24 12:32:05;;;;;;;;;;;7.50;99.90;;;;;;5057144;28;20273;-92
2024/01/24 12:34:34;;;;;;;;;;;7.50;99.90;;;;;;5075178;28;19908;-93
2024/01/24 12:37:02;;;;;;;;;;;7.50;99.90;;;;;;5073852;28;19919;-94
2024/01/24 12:39:31;;;;;;;;;;;7.50;99.90;;;;;;5073973;28;19908;-93
2024/01/24 12:41:57;;;;;;;;;;;7.50;99.90;;;;;;5076499;28;19958;-94
2024/01/24 12:44:23;;;;;;;;;;;7.50;99.90;;;;;;5078726;28;20335;-94
2024/01/24 12:46:55;;;;;;;0.20;0.20;;;7.60;99.90;;;;;;5056939;28;19994;-95
2024/01/24 12:49:21;;;;;;;0.20;0.20;;;7.60;99.90;;;;;;5075176;28;20193;-94
2024/01/24 12:51:47;;;;;;;0.27;0.27;;;7.70;99.90;;;;;;5047833;28;20453;-94
2024/01/24 12:54:14;;;;;;;0.30;0.30;;;7.70;99.90;;;;;;5053194;28;20330;-94
2024/01/24 12:56:39;;;;;;;0.20;0.20;;;7.60;99.90;;;;;;5074495;28;20483;-93
2024/01/24 12:59:06;;;;;;;0.20;0.20;;;7.50;99.90;;;;;;5074679;28;20921;-93
2024/01/24 13:01:31;;;;;;;0.20;0.20;;;7.60;99.90;;;;;;5074793;28;20197;-96
2024/01/24 13:03:57;;;;;;;0.20;0.20;;;7.70;99.90;;;;;;5057636;28;20432;-94
2024/01/24 13:06:22;;;;;;;0.20;0.20;;;7.70;99.90;;;;;;5057736;28;20651;-95